sensor_id;sensor_type;location;lat;lon;timestamp;pressure;altitude;pressure_sealevel;temperature;humidity
33075;BME280;19433;51.292;6.868;2023-03-13T00:00:30;99278.09;;;8.81;97.69
33075;BME280;19433;51.292;6.868;2023-03-13T00:02:55;99269.44;;;8.71;99.12
33075;BME280;19433;51.292;6.868;2023-03-13T00:05:20;99256.50;;;8.78;99.12
33075;BME280;19433;51.292;6.868;2023-03-13T00:07:46;99262.00;;;8.78;100.00
33075;BME280;19433;51.292;6.868;2023-03-13T00:10:11;99253.56;;;8.73;100.00
33075;BME280;19433;51.292;6.868;2023-03-13T00:12:36;99236.88;;;8.68;100.00
33075;BME280;19433;51.292;6.868;2023-03-13T00:15:02;99233.41;;;8.48;100.00
33075;BME280;19433;51.292;6.868;2023-03-13T00:17:27;99217.19;;;8.26;100.00
33075;BME280;19433;51.292;6.868;2023-03-13T00:19:53;99209.06;;;8.06;100.00
33075;BME280;19433;51.292;6.868;2023-03-13T00:22:19;99227.25;;;8.07;100.00
33075;BME280;19433;51.292;6.868;2023-03-13T00:24:45;99211.59;;;8.01;100.00
33075;BME280;19433;51.292;6.868;2023-03-13T00:27:10;99202.50;;;8.07;100.00
33075;BME280;19433;51.292;6.868;2023-03-13T00:29:36;99201.16;;;8.17;100.00
33075;BME280;19433;51.292;6.868;2023-03-13T00:32:01;99179.94;;;7.92;100.00
33075;BME280;19433;51.292;6.868;2023-03-13T00:34:27;99177.81;;;7.94;100.00
33075;BME280;19433;51.292;6.868;2023-03-13T00:36:53;99174.59;;;7.97;100.00
33075;BME280;19433;51.292;6.868;2023-03-13T00:39:19;99183.13;;;7.83;100.00
33075;BME280;19433;51.292;6.868;2023-03-13T00:41:44;99172.63;;;7.73;100.00
33075;BME280;19433;51.292;6.868;2023-03-13T00:44:09;99159.94;;;7.65;100.00
33075;BME280;19433;51.292;6.868;2023-03-13T00:46:35;99164.63;;;7.58;100.00
33075;BME280;19433;51.292;6.868;2023-03-13T00:49:01;99169.75;;;7.48;100.00
33075;BME280;19433;51.292;6.868;2023-03-13T00:51:27;99170.72;;;7.67;100.00
33075;BME280;19433;51.292;6.868;2023-03-13T00:53:57;99161.69;;;7.60;100.00
33075;BME280;19433;51.292;6.868;2023-03-13T00:56:27;99163.53;;;7.66;100.00
33075;BME280;19433;51.292;6.868;2023-03-13T00:58:52;99158.44;;;7.76;100.00
33075;BME280;19433;51.292;6.868;2023-03-13T01:01:26;99132.44;;;7.65;100.00
33075;BME280;19433;51.292;6.868;2023-03-13T01:03:57;99124.59;;;7.75;100.00
33075;BME280;19433;51.292;6.868;2023-03-13T01:06:25;99128.34;;;7.88;100.00
33075;BME280;19433;51.292;6.868;2023-03-13T01:08:51;99118.88;;;7.77;100.00
33075;BME280;19433;51.292;6.868;2023-03-13T01:11:19;99118.06;;;7.70;100.00
33075;BME280;19433;51.292;6.868;2023-03-13T01:13:45;99116.97;;;7.78;100.00
33075;BME280;19433;51.292;6.868;2023-03-13T01:16:16;99107.47;;;7.73;100.00
33075;BME280;19433;51.292;6.868;2023-03-13T01:18:45;99093.75;;;7.67;100.00
33075;BME280;19433;51.292;6.868;2023-03-13T01:21:11;99101.75;;;7.75;100.00
33075;BME280;19433;51.292;6.868;2023-03-13T01:23:37;99093.75;;;7.67;100.00
33075;BME280;19433;51.292;6.868;2023-03-13T01:26:04;99078.09;;;7.67;100.00
33075;BME280;19433;51.292;6.868;2023-03-13T01:28:30;99081.09;;;7.97;100.00
33075;BME280;19433;51.292;6.868;2023-03-13T01:30:56;99072.69;;;7.92;100.00
33075;BME280;19433;51.292;6.868;2023-03-13T01:33:21;99069.25;;;7.97;100.00
33075;BME280;19433;51.292;6.868;2023-03-13T01:35:46;99069.94;;;7.92;100.00
33075;BME280;19433;51.292;6.868;2023-03-13T01:38:12;99069.25;;;7.97;100.00
33075;BME280;19433;51.292;6.868;2023-03-13T01:40:46;99062.69;;;7.98;100.00
33075;BME280;19433;51.292;6.868;2023-03-13T01:43:18;99058.31;;;7.90;100.00
33075;BME280;19433;51.292;6.868;2023-03-13T01:45:51;99051.06;;;7.96;100.00
33075;BME280;19433;51.292;6.868;2023-03-13T01:48:18;99045.94;;;8.06;100.00
33075;BME280;19433;51.292;6.868;2023-03-13T01:50:43;99034.88;;;8.12;100.00
33075;BME280;19433;51.292;6.868;2023-03-13T01:53:09;99041.06;;;8.08;100.00
33075;BME280;19433;51.292;6.868;2023-03-13T01:55:35;99036.72;;;8.19;100.00
33075;BME280;19433;51.292;6.868;2023-03-13T01:58:00;99024.16;;;8.04;100.00
33075;BME280;19433;51.292;6.868;2023-03-13T02:00:29;99023.34;;;7.97;100.00
33075;BME280;19433;51.292;6.868;2023-03-13T02:03:00;99026.47;;;8.07;100.00
33075;BME280;19433;51.292;6.868;2023-03-13T02:05:30;99010.06;;;7.94;100.00
33075;BME280;19433;51.292;6.868;2023-03-13T02:08:03;99011.03;;;8.06;100.00
33075;BME280;19433;51.292;6.868;2023-03-13T02:10:35;98999.19;;;8.06;100.00
33075;BME280;19433;51.292;6.868;2023-03-13T02:13:02;98989.50;;;7.97;100.00
33075;BME280;19433;51.292;6.868;2023-03-13T02:15:29;98992.75;;;8.12;100.00
33075;BME280;19433;51.292;6.868;2023-03-13T02:17:55;98983.06;;;8.09;100.00
33075;BME280;19433;51.292;6.868;2023-03-13T02:20:21;98977.19;;;8.06;100.00
33075;BME280;19433;51.292;6.868;2023-03-13T02:25:50;98970.94;;;8.17;100.00
33075;BME280;19433;51.292;6.868;2023-03-13T02:28:19;98963.75;;;8.16;100.00
33075;BME280;19433;51.292;6.868;2023-03-13T02:30:47;98950.00;;;8.16;100.00
33075;BME280;19433;51.292;6.868;2023-03-13T02:33:14;98954.81;;;8.21;100.00
33075;BME280;19433;51.292;6.868;2023-03-13T02:35:41;98947.47;;;8.15;100.00
33075;BME280;19433;51.292;6.868;2023-03-13T02:38:09;98943.88;;;8.14;100.00
33075;BME280;19433;51.292;6.868;2023-03-13T02:40:40;98938.53;;;8.19;100.00
33075;BME280;19433;51.292;6.868;2023-03-13T02:43:10;98929.84;;;8.22;100.00
33075;BME280;19433;51.292;6.868;2023-03-13T02:45:37;98931.88;;;8.27;100.00
33075;BME280;19433;51.292;6.868;2023-03-13T02:48:02;98929.97;;;8.34;100.00
33075;BME280;19433;51.292;6.868;2023-03-13T02:50:28;98929.13;;;8.27;100.00
33075;BME280;19433;51.292;6.868;2023-03-13T02:52:56;98912.59;;;8.33;100.00
33075;BME280;19433;51.292;6.868;2023-03-13T02:55:28;98921.94;;;8.32;100.00
33075;BME280;19433;51.292;6.868;2023-03-13T02:57:54;98918.94;;;8.34;100.00
33075;BME280;19433;51.292;6.868;2023-03-13T03:00:19;98922.63;;;8.46;100.00
33075;BME280;19433;51.292;6.868;2023-03-13T03:02:50;98914.53;;;8.51;100.00
33075;BME280;19433;51.292;6.868;2023-03-13T03:05:15;98908.84;;;8.46;100.00
33075;BME280;19433;51.292;6.868;2023-03-13T03:07:41;98897.56;;;8.54;100.00
33075;BME280;19433;51.292;6.868;2023-03-13T03:10:06;98892.72;;;8.68;100.00
33075;BME280;19433;51.292;6.868;2023-03-13T03:12:32;98878.19;;;8.61;100.00
33075;BME280;19433;51.292;6.868;2023-03-13T03:14:57;98880.50;;;8.64;100.00
33075;BME280;19433;51.292;6.868;2023-03-13T03:17:22;98883.25;;;8.64;100.00
33075;BME280;19433;51.292;6.868;2023-03-13T03:19:47;98884.81;;;8.71;100.00
33075;BME280;19433;51.292;6.868;2023-03-13T03:22:13;98889.97;;;8.68;100.00
33075;BME280;19433;51.292;6.868;2023-03-13T03:24:38;98886.06;;;8.75;100.00
33075;BME280;19433;51.292;6.868;2023-03-13T03:27:03;98881.94;;;8.85;100.00
33075;BME280;19433;51.292;6.868;2023-03-13T03:29:29;98878.19;;;8.79;100.00
33075;BME280;19433;51.292;6.868;2023-03-13T03:31:54;98872.28;;;8.75;100.00
33075;BME280;19433;51.292;6.868;2023-03-13T03:34:20;98861.72;;;8.72;100.00
33075;BME280;19433;51.292;6.868;2023-03-13T03:36:45;98880.88;;;8.67;100.00
33075;BME280;19433;51.292;6.868;2023-03-13T03:39:10;98869.22;;;8.84;100.00
33075;BME280;19433;51.292;6.868;2023-03-13T03:41:36;98878.63;;;8.76;100.00
33075;BME280;19433;51.292;6.868;2023-03-13T03:44:02;98879.84;;;8.80;100.00
33075;BME280;19433;51.292;6.868;2023-03-13T03:46:27;98883.47;;;8.80;100.00
33075;BME280;19433;51.292;6.868;2023-03-13T03:48:52;98869.31;;;8.77;100.00
33075;BME280;19433;51.292;6.868;2023-03-13T03:51:19;98859.75;;;8.79;100.00
33075;BME280;19433;51.292;6.868;2023-03-13T03:53:44;98868.38;;;8.83;100.00
33075;BME280;19433;51.292;6.868;2023-03-13T03:56:10;98875.50;;;8.72;100.00
33075;BME280;19433;51.292;6.868;2023-03-13T03:58:35;98873.28;;;8.81;100.00
33075;BME280;19433;51.292;6.868;2023-03-13T04:01:00;98879.84;;;8.80;100.00
33075;BME280;19433;51.292;6.868;2023-03-13T04:03:26;98883.00;;;8.84;100.00
33075;BME280;19433;51.292;6.868;2023-03-13T04:05:51;98876.88;;;8.81;100.00
33075;BME280;19433;51.292;6.868;2023-03-13T04:08:16;98871.38;;;8.81;100.00
33075;BME280;19433;51.292;6.868;2023-03-13T04:10:42;98867.31;;;8.84;100.00
33075;BME280;19433;51.292;6.868;2023-03-13T04:13:08;98867.66;;;8.88;100.00
33075;BME280;19433;51.292;6.868;2023-03-13T04:15:33;98859.41;;;8.88;100.00
33075;BME280;19433;51.292;6.868;2023-03-13T04:17:58;98860.84;;;8.90;100.00
33075;BME280;19433;51.292;6.868;2023-03-13T04:20:25;98854.28;;;8.91;100.00
33075;BME280;19433;51.292;6.868;2023-03-13T04:22:50;98852.97;;;8.94;100.00
33075;BME280;19433;51.292;6.868;2023-03-13T04:25:16;98836.88;;;8.79;100.00
33075;BME280;19433;51.292;6.868;2023-03-13T04:27:41;98844.94;;;8.92;100.00
33075;BME280;19433;51.292;6.868;2023-03-13T04:30:07;98840.19;;;8.99;100.00
33075;BME280;19433;51.292;6.868;2023-03-13T04:32:32;98846.84;;;8.92;100.00
33075;BME280;19433;51.292;6.868;2023-03-13T04:34:57;98841.28;;;8.98;100.00
33075;BME280;19433;51.292;6.868;2023-03-13T04:37:23;98837.53;;;8.93;100.00
33075;BME280;19433;51.292;6.868;2023-03-13T04:39:48;98844.94;;;8.92;100.00
33075;BME280;19433;51.292;6.868;2023-03-13T04:42:13;98838.38;;;8.93;100.00
33075;BME280;19433;51.292;6.868;2023-03-13T04:44:39;98834.06;;;8.97;100.00
33075;BME280;19433;51.292;6.868;2023-03-13T04:47:04;98838.53;;;9.10;100.00
33075;BME280;19433;51.292;6.868;2023-03-13T04:49:30;98836.63;;;9.10;100.00
33075;BME280;19433;51.292;6.868;2023-03-13T04:51:55;98831.84;;;9.17;100.00
33075;BME280;19433;51.292;6.868;2023-03-13T04:54:21;98841.34;;;9.33;100.00
33075;BME280;19433;51.292;6.868;2023-03-13T04:56:46;98829.47;;;9.33;100.00
33075;BME280;19433;51.292;6.868;2023-03-13T04:59:12;98823.72;;;9.34;100.00
33075;BME280;19433;51.292;6.868;2023-03-13T05:01:38;98820.88;;;9.41;100.00
33075;BME280;19433;51.292;6.868;2023-03-13T05:04:04;98822.19;;;9.50;100.00
33075;BME280;19433;51.292;6.868;2023-03-13T05:06:30;98810.47;;;9.55;100.00
33075;BME280;19433;51.292;6.868;2023-03-13T05:08:55;98814.56;;;9.75;100.00
33075;BME280;19433;51.292;6.868;2023-03-13T05:11:20;98811.44;;;9.83;100.00
33075;BME280;19433;51.292;6.868;2023-03-13T05:13:46;98805.91;;;10.07;100.00
33075;BME280;19433;51.292;6.868;2023-03-13T05:16:11;98810.34;;;10.08;100.00
33075;BME280;19433;51.292;6.868;2023-03-13T05:18:36;98794.72;;;10.13;100.00
33075;BME280;19433;51.292;6.868;2023-03-13T05:21:03;98791.72;;;10.15;100.00
33075;BME280;19433;51.292;6.868;2023-03-13T05:23:28;98797.38;;;10.32;100.00
33075;BME280;19433;51.292;6.868;2023-03-13T05:25:54;98792.81;;;10.37;100.00
33075;BME280;19433;51.292;6.868;2023-03-13T05:28:19;98801.66;;;10.39;100.00
33075;BME280;19433;51.292;6.868;2023-03-13T05:30:44;98797.81;;;10.40;100.00
33075;BME280;19433;51.292;6.868;2023-03-13T05:33:09;98803.22;;;10.47;100.00
33075;BME280;19433;51.292;6.868;2023-03-13T05:35:35;98791.94;;;10.48;100.00
33075;BME280;19433;51.292;6.868;2023-03-13T05:38:01;98798.41;;;10.54;100.00
33075;BME280;19433;51.292;6.868;2023-03-13T05:40:26;98779.16;;;10.59;100.00
33075;BME280;19433;51.292;6.868;2023-03-13T05:42:51;98798.47;;;10.59;100.00
33075;BME280;19433;51.292;6.868;2023-03-13T05:45:16;98795.97;;;10.57;100.00
33075;BME280;19433;51.292;6.868;2023-03-13T05:47:42;98809.03;;;10.62;100.00
33075;BME280;19433;51.292;6.868;2023-03-13T05:50:07;98803.28;;;10.64;100.00
33075;BME280;19433;51.292;6.868;2023-03-13T05:52:33;98804.47;;;10.68;100.00
33075;BME280;19433;51.292;6.868;2023-03-13T05:54:59;98814.44;;;10.69;100.00
33075;BME280;19433;51.292;6.868;2023-03-13T05:57:24;98801.94;;;10.66;100.00
33075;BME280;19433;51.292;6.868;2023-03-13T05:59:49;98782.81;;;10.76;100.00
33075;BME280;19433;51.292;6.868;2023-03-13T06:02:15;98783.22;;;10.68;100.00
33075;BME280;19433;51.292;6.868;2023-03-13T06:04:40;98790.50;;;10.74;100.00
33075;BME280;19433;51.292;6.868;2023-03-13T06:07:05;98795.78;;;10.76;100.00
33075;BME280;19433;51.292;6.868;2023-03-13T06:09:30;98783.59;;;10.88;100.00
33075;BME280;19433;51.292;6.868;2023-03-13T06:11:56;98788.19;;;10.83;100.00
33075;BME280;19433;51.292;6.868;2023-03-13T06:14:21;98793.19;;;10.86;100.00
33075;BME280;19433;51.292;6.868;2023-03-13T06:16:47;98794.75;;;10.93;100.00
33075;BME280;19433;51.292;6.868;2023-03-13T06:19:12;98797.84;;;10.97;100.00
33075;BME280;19433;51.292;6.868;2023-03-13T06:21:38;98793.25;;;11.03;100.00
33075;BME280;19433;51.292;6.868;2023-03-13T06:24:03;98789.00;;;11.12;100.00
33075;BME280;19433;51.292;6.868;2023-03-13T06:26:28;98780.78;;;11.17;100.00
33075;BME280;19433;51.292;6.868;2023-03-13T06:28:54;98773.78;;;11.26;100.00
33075;BME280;19433;51.292;6.868;2023-03-13T06:31:20;98776.53;;;11.26;100.00
33075;BME280;19433;51.292;6.868;2023-03-13T06:33:45;98797.72;;;11.37;100.00
33075;BME280;19433;51.292;6.868;2023-03-13T06:36:10;98791.13;;;11.38;100.00
33075;BME280;19433;51.292;6.868;2023-03-13T06:38:36;98787.84;;;11.41;100.00
33075;BME280;19433;51.292;6.868;2023-03-13T06:41:01;98791.81;;;11.45;100.00
33075;BME280;19433;51.292;6.868;2023-03-13T06:43:28;98798.22;;;11.51;100.00
33075;BME280;19433;51.292;6.868;2023-03-13T06:45:53;98794.72;;;11.55;100.00
33075;BME280;19433;51.292;6.868;2023-03-13T06:48:19;98802.19;;;11.55;100.00
33075;BME280;19433;51.292;6.868;2023-03-13T06:50:47;98805.03;;;11.60;100.00
33075;BME280;19433;51.292;6.868;2023-03-13T06:53:19;98807.53;;;11.61;100.00
33075;BME280;19433;51.292;6.868;2023-03-13T06:55:45;98823.38;;;11.66;100.00
33075;BME280;19433;51.292;6.868;2023-03-13T06:58:11;98811.69;;;11.76;100.00
33075;BME280;19433;51.292;6.868;2023-03-13T07:00:37;98810.97;;;11.69;100.00
33075;BME280;19433;51.292;6.868;2023-03-13T07:03:04;98800.25;;;11.72;100.00
33075;BME280;19433;51.292;6.868;2023-03-13T07:05:29;98809.13;;;11.74;100.00
33075;BME280;19433;51.292;6.868;2023-03-13T07:07:54;98804.78;;;11.78;100.00
33075;BME280;19433;51.292;6.868;2023-03-13T07:10:20;98801.84;;;11.85;100.00
33075;BME280;19433;51.292;6.868;2023-03-13T07:12:45;98809.31;;;11.84;100.00
33075;BME280;19433;51.292;6.868;2023-03-13T07:15:10;98818.78;;;11.88;100.00
33075;BME280;19433;51.292;6.868;2023-03-13T07:17:36;98804.72;;;11.90;100.00
33075;BME280;19433;51.292;6.868;2023-03-13T07:20:03;98798.63;;;11.93;100.00
33075;BME280;19433;51.292;6.868;2023-03-13T07:22:29;98810.28;;;11.95;100.00
33075;BME280;19433;51.292;6.868;2023-03-13T07:24:55;98805.50;;;12.07;100.00
33075;BME280;19433;51.292;6.868;2023-03-13T07:27:20;98796.03;;;12.03;100.00
33075;BME280;19433;51.292;6.868;2023-03-13T07:29:46;98799.44;;;12.10;100.00
33075;BME280;19433;51.292;6.868;2023-03-13T07:32:11;98780.66;;;12.12;100.00
33075;BME280;19433;51.292;6.868;2023-03-13T07:34:37;98778.16;;;12.11;100.00
33075;BME280;19433;51.292;6.868;2023-03-13T07:37:02;98781.16;;;12.09;100.00
33075;BME280;19433;51.292;6.868;2023-03-13T07:39:27;98771.94;;;12.20;100.00
33075;BME280;19433;51.292;6.868;2023-03-13T07:41:53;98782.41;;;12.18;100.00
33075;BME280;19433;51.292;6.868;2023-03-13T07:44:18;98780.22;;;12.20;100.00
33075;BME280;19433;51.292;6.868;2023-03-13T07:46:43;98785.63;;;12.32;100.00
33075;BME280;19433;51.292;6.868;2023-03-13T07:49:08;98779.59;;;12.35;100.00
33075;BME280;19433;51.292;6.868;2023-03-13T07:51:34;98767.59;;;12.29;100.00
33075;BME280;19433;51.292;6.868;2023-03-13T07:53:59;98766.75;;;12.29;100.00
33075;BME280;19433;51.292;6.868;2023-03-13T07:56:24;98771.97;;;12.25;100.00
33075;BME280;19433;51.292;6.868;2023-03-13T07:58:50;98777.50;;;12.25;100.00
33075;BME280;19433;51.292;6.868;2023-03-13T08:01:22;98776.81;;;12.35;100.00
33075;BME280;19433;51.292;6.868;2023-03-13T08:03:48;98776.50;;;12.31;100.00
33075;BME280;19433;51.292;6.868;2023-03-13T08:06:17;98770.63;;;12.28;100.00
33075;BME280;19433;51.292;6.868;2023-03-13T08:08:43;98773.97;;;12.30;100.00
33075;BME280;19433;51.292;6.868;2023-03-13T08:11:11;98761.72;;;12.26;100.00
33075;BME280;19433;51.292;6.868;2023-03-13T08:13:37;98765.94;;;12.28;100.00
33075;BME280;19433;51.292;6.868;2023-03-13T08:16:03;98764.06;;;12.34;100.00
33075;BME280;19433;51.292;6.868;2023-03-13T08:18:29;98751.25;;;12.28;100.00
33075;BME280;19433;51.292;6.868;2023-03-13T08:21:04;98767.72;;;12.40;100.00
33075;BME280;19433;51.292;6.868;2023-03-13T08:23:30;98775.84;;;12.46;100.00
33075;BME280;19433;51.292;6.868;2023-03-13T08:26:04;98758.97;;;12.48;100.00
33075;BME280;19433;51.292;6.868;2023-03-13T08:28:30;98767.91;;;12.55;100.00
33075;BME280;19433;51.292;6.868;2023-03-13T08:30:55;98760.97;;;12.52;100.00
33075;BME280;19433;51.292;6.868;2023-03-13T08:33:21;98773.44;;;12.55;100.00
33075;BME280;19433;51.292;6.868;2023-03-13T08:35:46;98766.88;;;12.61;100.00
33075;BME280;19433;51.292;6.868;2023-03-13T08:38:11;98769.13;;;12.64;100.00
33075;BME280;19433;51.292;6.868;2023-03-13T08:40:36;98760.84;;;12.64;100.00
33075;BME280;19433;51.292;6.868;2023-03-13T08:43:02;98775.00;;;12.67;100.00
33075;BME280;19433;51.292;6.868;2023-03-13T08:45:27;98788.31;;;12.71;100.00
33075;BME280;19433;51.292;6.868;2023-03-13T08:47:52;98780.84;;;12.71;100.00
33075;BME280;19433;51.292;6.868;2023-03-13T08:50:18;98775.03;;;12.73;100.00
33075;BME280;19433;51.292;6.868;2023-03-13T08:52:44;98776.97;;;12.72;100.00
33075;BME280;19433;51.292;6.868;2023-03-13T08:55:09;98770.28;;;12.68;100.00
33075;BME280;19433;51.292;6.868;2023-03-13T08:57:34;98774.22;;;12.72;100.00
33075;BME280;19433;51.292;6.868;2023-03-13T09:00:00;98775.88;;;12.73;100.00
33075;BME280;19433;51.292;6.868;2023-03-13T09:02:25;98765.03;;;12.66;100.00
33075;BME280;19433;51.292;6.868;2023-03-13T09:04:50;98762.28;;;12.72;100.00
33075;BME280;19433;51.292;6.868;2023-03-13T09:07:15;98778.81;;;12.88;100.00
33075;BME280;19433;51.292;6.868;2023-03-13T09:09:41;98766.72;;;12.99;100.00
33075;BME280;19433;51.292;6.868;2023-03-13T09:12:07;98763.03;;;13.16;99.68
33075;BME280;19433;51.292;6.868;2023-03-13T09:14:32;98758.34;;;13.16;99.78
33075;BME280;19433;51.292;6.868;2023-03-13T09:16:57;98754.16;;;13.14;100.00
33075;BME280;19433;51.292;6.868;2023-03-13T09:19:24;98747.03;;;13.23;99.67
33075;BME280;19433;51.292;6.868;2023-03-13T09:21:49;98751.91;;;13.11;100.00
33075;BME280;19433;51.292;6.868;2023-03-13T09:24:14;98753.16;;;12.98;100.00
33075;BME280;19433;51.292;6.868;2023-03-13T09:26:40;98739.31;;;12.98;100.00
33075;BME280;19433;51.292;6.868;2023-03-13T09:29:05;98731.91;;;13.09;100.00
33075;BME280;19433;51.292;6.868;2023-03-13T09:31:32;98727.97;;;13.04;100.00
33075;BME280;19433;51.292;6.868;2023-03-13T09:33:58;98728.56;;;13.07;100.00
33075;BME280;19433;51.292;6.868;2023-03-13T09:36:24;98732.63;;;12.99;100.00
33075;BME280;19433;51.292;6.868;2023-03-13T09:38:51;98715.47;;;13.02;100.00
33075;BME280;19433;51.292;6.868;2023-03-13T09:41:28;98732.78;;;13.41;100.00
33075;BME280;19433;51.292;6.868;2023-03-13T09:44:08;98715.88;;;13.48;100.00
33075;BME280;19433;51.292;6.868;2023-03-13T09:46:47;98715.56;;;13.39;100.00
33075;BME280;19433;51.292;6.868;2023-03-13T09:49:32;98722.13;;;13.01;100.00
33075;BME280;19433;51.292;6.868;2023-03-13T09:52:18;98716.00;;;12.72;100.00
33075;BME280;19433;51.292;6.868;2023-03-13T09:54:53;98713.72;;;12.64;100.00
33075;BME280;19433;51.292;6.868;2023-03-13T09:57:32;98717.13;;;12.71;100.00
33075;BME280;19433;51.292;6.868;2023-03-13T10:00:13;98706.25;;;12.91;100.00
33075;BME280;19433;51.292;6.868;2023-03-13T10:02:46;98722.53;;;13.47;100.00
33075;BME280;19433;51.292;6.868;2023-03-13T10:05:22;98707.59;;;13.95;100.00
33075;BME280;19433;51.292;6.868;2023-03-13T10:07:49;98707.16;;;14.18;98.46
33075;BME280;19433;51.292;6.868;2023-03-13T10:10:16;98707.22;;;14.38;97.75
33075;BME280;19433;51.292;6.868;2023-03-13T10:12:45;98695.28;;;14.38;96.34
33075;BME280;19433;51.292;6.868;2023-03-13T10:15:29;98697.03;;;14.49;95.94
33075;BME280;19433;51.292;6.868;2023-03-13T10:17:58;98698.00;;;14.23;96.14
33075;BME280;19433;51.292;6.868;2023-03-13T10:23:18;98691.81;;;14.00;97.57
33075;BME280;19433;51.292;6.868;2023-03-13T10:25:44;98676.47;;;13.88;98.78
33075;BME280;19433;51.292;6.868;2023-03-13T10:28:11;98694.81;;;13.89;98.12
33075;BME280;19433;51.292;6.868;2023-03-13T10:30:42;98682.59;;;13.95;98.03
33075;BME280;19433;51.292;6.868;2023-03-13T10:35:38;98673.25;;;14.11;95.48
33075;BME280;19433;51.292;6.868;2023-03-13T10:38:17;98684.38;;;14.16;95.92
33075;BME280;19433;51.292;6.868;2023-03-13T10:40:43;98667.13;;;14.09;96.09
33075;BME280;19433;51.292;6.868;2023-03-13T10:43:28;98664.09;;;14.21;95.96
33075;BME280;19433;51.292;6.868;2023-03-13T10:45:54;98661.38;;;14.31;94.83
33075;BME280;19433;51.292;6.868;2023-03-13T10:48:23;98655.53;;;14.37;93.77
33075;BME280;19433;51.292;6.868;2023-03-13T10:50:52;98658.38;;;14.42;92.42
33075;BME280;19433;51.292;6.868;2023-03-13T10:53:21;98654.22;;;14.55;92.38
33075;BME280;19433;51.292;6.868;2023-03-13T10:55:47;98643.69;;;14.67;90.41
33075;BME280;19433;51.292;6.868;2023-03-13T10:58:20;98660.09;;;14.59;90.71
33075;BME280;19433;51.292;6.868;2023-03-13T11:00:47;98652.88;;;14.73;90.46
33075;BME280;19433;51.292;6.868;2023-03-13T11:03:25;98628.44;;;14.85;89.12
33075;BME280;19433;51.292;6.868;2023-03-13T11:05:57;98640.66;;;15.04;88.42
33075;BME280;19433;51.292;6.868;2023-03-13T11:08:28;98633.72;;;14.92;88.29
33075;BME280;19433;51.292;6.868;2023-03-13T11:11:00;98634.25;;;15.14;87.97
33075;BME280;19433;51.292;6.868;2023-03-13T11:13:33;98629.53;;;15.14;87.46
33075;BME280;19433;51.292;6.868;2023-03-13T11:22:00;98626.19;;;15.33;87.09
33075;BME280;19433;51.292;6.868;2023-03-13T11:24:41;98612.03;;;16.14;81.88
33075;BME280;19433;51.292;6.868;2023-03-13T11:27:14;98605.78;;;16.37;80.11
33075;BME280;19433;51.292;6.868;2023-03-13T11:32:44;98591.81;;;16.86;76.62
33075;BME280;19433;51.292;6.868;2023-03-13T11:35:39;98599.78;;;16.98;77.25
33075;BME280;19433;51.292;6.868;2023-03-13T11:38:13;98595.41;;;16.87;76.84
33075;BME280;19433;51.292;6.868;2023-03-13T11:43:26;98578.84;;;17.30;74.64
33075;BME280;19433;51.292;6.868;2023-03-13T11:51:21;98572.72;;;17.56;72.59
33075;BME280;19433;51.292;6.868;2023-03-13T11:54:11;98563.38;;;19.35;66.07
33075;BME280;19433;51.292;6.868;2023-03-13T11:56:57;98559.59;;;21.92;56.85
33075;BME280;19433;51.292;6.868;2023-03-13T11:59:58;98542.97;;;21.73;54.20
33075;BME280;19433;51.292;6.868;2023-03-13T12:02:39;98538.06;;;20.94;57.18
33075;BME280;19433;51.292;6.868;2023-03-13T12:05:08;98548.28;;;19.50;62.51
33075;BME280;19433;51.292;6.868;2023-03-13T12:07:56;98539.25;;;18.37;66.87
33075;BME280;19433;51.292;6.868;2023-03-13T12:10:30;98524.34;;;17.61;70.45
33075;BME280;19433;51.292;6.868;2023-03-13T12:13:04;98534.59;;;17.18;71.77
33075;BME280;19433;51.292;6.868;2023-03-13T12:15:36;98504.91;;;16.74;73.39
33075;BME280;19433;51.292;6.868;2023-03-13T12:18:11;98521.88;;;16.78;72.58
33075;BME280;19433;51.292;6.868;2023-03-13T12:20:40;98538.34;;;16.35;74.76
33075;BME280;19433;51.292;6.868;2023-03-13T12:26:09;98499.53;;;16.44;75.36
33075;BME280;19433;51.292;6.868;2023-03-13T12:31:31;98489.47;;;16.09;77.42
33075;BME280;19433;51.292;6.868;2023-03-13T12:39:33;98487.44;;;16.19;77.67
33075;BME280;19433;51.292;6.868;2023-03-13T12:44:47;98499.66;;;17.26;72.42
33075;BME280;19433;51.292;6.868;2023-03-13T12:58:48;98458.00;;;17.05;72.73
33075;BME280;19433;51.292;6.868;2023-03-13T13:01:24;98454.34;;;16.81;73.91
33075;BME280;19433;51.292;6.868;2023-03-13T13:03:57;98454.44;;;17.00;72.84
33075;BME280;19433;51.292;6.868;2023-03-13T13:06:24;98447.28;;;16.60;74.52
33075;BME280;19433;51.292;6.868;2023-03-13T13:13:58;98436.13;;;15.92;78.12
33075;BME280;19433;51.292;6.868;2023-03-13T13:16:24;98437.78;;;15.93;78.05
33075;BME280;19433;51.292;6.868;2023-03-13T13:18:50;98422.19;;;15.92;78.02
33075;BME280;19433;51.292;6.868;2023-03-13T13:23:43;98427.94;;;16.05;77.73
33075;BME280;19433;51.292;6.868;2023-03-13T13:45:00;98410.50;;;16.86;72.85
33075;BME280;19433;51.292;6.868;2023-03-13T13:47:27;98401.47;;;17.18;71.36
33075;BME280;19433;51.292;6.868;2023-03-13T13:49:56;98397.66;;;17.33;70.75
33075;BME280;19433;51.292;6.868;2023-03-13T13:52:40;98396.88;;;17.09;70.77
33075;BME280;19433;51.292;6.868;2023-03-13T13:57:51;98376.03;;;16.48;74.13
33075;BME280;19433;51.292;6.868;2023-03-13T14:00:26;98370.09;;;16.55;74.33
33075;BME280;19433;51.292;6.868;2023-03-13T14:02:54;98378.19;;;16.28;75.24
33075;BME280;19433;51.292;6.868;2023-03-13T14:10:33;98366.97;;;15.65;77.49
33075;BME280;19433;51.292;6.868;2023-03-13T14:13:00;98368.34;;;15.72;76.14
33075;BME280;19433;51.292;6.868;2023-03-13T14:15:30;98360.38;;;15.90;76.19
33075;BME280;19433;51.292;6.868;2023-03-13T14:17:59;98362.03;;;15.91;75.83
33075;BME280;19433;51.292;6.868;2023-03-13T14:20:32;98359.38;;;16.09;75.94
33075;BME280;19433;51.292;6.868;2023-03-13T14:23:06;98358.53;;;16.14;76.21
33075;BME280;19433;51.292;6.868;2023-03-13T14:25:44;98341.66;;;16.29;76.17